sensor_id;sensor_type;location;lat;lon;timestamp;temperature;humidity
40868;DHT22;26586;50.708;22.412;2022-12-16T00:01:13;10.80;39.20
40868;DHT22;26586;50.708;22.412;2022-12-16T00:03:40;10.90;39.40
40868;DHT22;26586;50.708;22.412;2022-12-16T00:06:08;10.80;39.20
40868;DHT22;26586;50.708;22.412;2022-12-16T00:08:36;10.80;39.30
40868;DHT22;26586;50.708;22.412;2022-12-16T00:11:04;10.80;39.30
40868;DHT22;26586;50.708;22.412;2022-12-16T00:13:31;10.80;39.30
40868;DHT22;26586;50.708;22.412;2022-12-16T00:16:03;10.70;39.30
40868;DHT22;26586;50.708;22.412;2022-12-16T00:18:29;10.80;39.30
40868;DHT22;26586;50.708;22.412;2022-12-16T00:20:56;10.80;39.40
40868;DHT22;26586;50.708;22.412;2022-12-16T00:23:22;10.70;39.20
40868;DHT22;26586;50.708;22.412;2022-12-16T00:25:49;10.70;39.30
40868;DHT22;26586;50.708;22.412;2022-12-16T00:28:16;10.70;39.60
40868;DHT22;26586;50.708;22.412;2022-12-16T00:30:42;10.70;39.80
40868;DHT22;26586;50.708;22.412;2022-12-16T00:33:09;10.70;39.80
40868;DHT22;26586;50.708;22.412;2022-12-16T00:35:35;10.70;40.10
40868;DHT22;26586;50.708;22.412;2022-12-16T00:38:02;10.70;40.60
40868;DHT22;26586;50.708;22.412;2022-12-16T00:40:28;10.70;40.50
40868;DHT22;26586;50.708;22.412;2022-12-16T00:42:54;10.70;40.50
40868;DHT22;26586;50.708;22.412;2022-12-16T00:45:21;10.70;40.70
40868;DHT22;26586;50.708;22.412;2022-12-16T00:47:48;10.80;40.90
40868;DHT22;26586;50.708;22.412;2022-12-16T00:50:16;10.70;40.80
40868;DHT22;26586;50.708;22.412;2022-12-16T00:52:42;10.70;40.80
40868;DHT22;26586;50.708;22.412;2022-12-16T00:55:09;10.80;40.80
40868;DHT22;26586;50.708;22.412;2022-12-16T00:57:35;10.80;41.00
40868;DHT22;26586;50.708;22.412;2022-12-16T01:00:02;10.80;41.00
40868;DHT22;26586;50.708;22.412;2022-12-16T01:02:31;10.80;40.90
40868;DHT22;26586;50.708;22.412;2022-12-16T01:04:58;10.80;41.00
40868;DHT22;26586;50.708;22.412;2022-12-16T01:07:24;10.80;40.80
40868;DHT22;26586;50.708;22.412;2022-12-16T01:09:50;10.80;41.00
40868;DHT22;26586;50.708;22.412;2022-12-16T01:12:17;10.80;41.00
40868;DHT22;26586;50.708;22.412;2022-12-16T01:14:43;10.90;41.20
40868;DHT22;26586;50.708;22.412;2022-12-16T01:17:09;10.90;41.10
40868;DHT22;26586;50.708;22.412;2022-12-16T01:19:35;10.90;41.10
40868;DHT22;26586;50.708;22.412;2022-12-16T01:22:01;10.80;41.10
40868;DHT22;26586;50.708;22.412;2022-12-16T01:24:28;10.90;41.30
40868;DHT22;26586;50.708;22.412;2022-12-16T01:26:54;10.80;41.10
40868;DHT22;26586;50.708;22.412;2022-12-16T01:29:20;10.90;41.20
40868;DHT22;26586;50.708;22.412;2022-12-16T01:31:46;10.90;41.60
40868;DHT22;26586;50.708;22.412;2022-12-16T01:34:13;10.90;41.70
40868;DHT22;26586;50.708;22.412;2022-12-16T01:36:39;10.90;42.50
40868;DHT22;26586;50.708;22.412;2022-12-16T01:39:05;11.00;42.20
40868;DHT22;26586;50.708;22.412;2022-12-16T01:41:31;10.90;42.20
40868;DHT22;26586;50.708;22.412;2022-12-16T01:44:15;11.00;42.30
40868;DHT22;26586;50.708;22.412;2022-12-16T01:46:44;11.00;42.20
40868;DHT22;26586;50.708;22.412;2022-12-16T01:49:37;11.00;42.30
40868;DHT22;26586;50.708;22.412;2022-12-16T01:52:08;11.00;42.10
40868;DHT22;26586;50.708;22.412;2022-12-16T01:54:48;11.00;41.80
40868;DHT22;26586;50.708;22.412;2022-12-16T01:57:20;11.00;42.00
40868;DHT22;26586;50.708;22.412;2022-12-16T01:59:49;11.00;41.90
40868;DHT22;26586;50.708;22.412;2022-12-16T02:02:16;11.10;41.50
40868;DHT22;26586;50.708;22.412;2022-12-16T02:04:43;11.10;41.50
40868;DHT22;26586;50.708;22.412;2022-12-16T02:07:29;11.10;41.50
40868;DHT22;26586;50.708;22.412;2022-12-16T02:09:55;11.10;41.80
40868;DHT22;26586;50.708;22.412;2022-12-16T02:12:46;11.10;41.70
40868;DHT22;26586;50.708;22.412;2022-12-16T02:26:33;11.10;42.50
40868;DHT22;26586;50.708;22.412;2022-12-16T02:29:30;11.10;41.70
40868;DHT22;26586;50.708;22.412;2022-12-16T02:31:59;11.10;41.50
40868;DHT22;26586;50.708;22.412;2022-12-16T02:34:29;11.10;41.50
40868;DHT22;26586;50.708;22.412;2022-12-16T02:40:06;11.10;41.70
40868;DHT22;26586;50.708;22.412;2022-12-16T02:43:01;11.10;41.90
40868;DHT22;26586;50.708;22.412;2022-12-16T02:45:30;11.00;41.90
40868;DHT22;26586;50.708;22.412;2022-12-16T02:47:57;11.10;42.70
40868;DHT22;26586;50.708;22.412;2022-12-16T02:50:43;11.10;42.60
40868;DHT22;26586;50.708;22.412;2022-12-16T02:53:11;11.10;43.00
40868;DHT22;26586;50.708;22.412;2022-12-16T03:01:29;11.10;43.10
40868;DHT22;26586;50.708;22.412;2022-12-16T03:04:10;11.20;43.10
40868;DHT22;26586;50.708;22.412;2022-12-16T03:06:39;11.20;42.70
40868;DHT22;26586;50.708;22.412;2022-12-16T03:09:11;11.20;42.30
40868;DHT22;26586;50.708;22.412;2022-12-16T03:11:41;11.10;42.40
40868;DHT22;26586;50.708;22.412;2022-12-16T03:14:09;11.10;42.40
40868;DHT22;26586;50.708;22.412;2022-12-16T03:16:37;11.10;42.60
40868;DHT22;26586;50.708;22.412;2022-12-16T03:19:06;11.10;42.50
40868;DHT22;26586;50.708;22.412;2022-12-16T03:21:50;11.10;42.50
40868;DHT22;26586;50.708;22.412;2022-12-16T03:24:17;11.00;42.90
40868;DHT22;26586;50.708;22.412;2022-12-16T03:27:07;11.00;42.60
40868;DHT22;26586;50.708;22.412;2022-12-16T03:29:40;11.00;42.70
40868;DHT22;26586;50.708;22.412;2022-12-16T03:33:18;11.10;43.20
40868;DHT22;26586;50.708;22.412;2022-12-16T03:35:19;11.10;43.20
40868;DHT22;26586;50.708;22.412;2022-12-16T03:37:50;11.10;43.50
40868;DHT22;26586;50.708;22.412;2022-12-16T03:40:17;11.10;43.50
40868;DHT22;26586;50.708;22.412;2022-12-16T03:42:44;11.10;43.80
40868;DHT22;26586;50.708;22.412;2022-12-16T03:45:15;11.10;43.10
40868;DHT22;26586;50.708;22.412;2022-12-16T03:47:42;11.10;42.70
40868;DHT22;26586;50.708;22.412;2022-12-16T03:50:13;11.10;42.40
40868;DHT22;26586;50.708;22.412;2022-12-16T03:52:39;11.10;42.40
40868;DHT22;26586;50.708;22.412;2022-12-16T03:55:05;11.00;42.40
40868;DHT22;26586;50.708;22.412;2022-12-16T03:57:31;11.10;43.20
40868;DHT22;26586;50.708;22.412;2022-12-16T03:59:58;11.10;43.20
40868;DHT22;26586;50.708;22.412;2022-12-16T04:02:24;11.00;43.10
40868;DHT22;26586;50.708;22.412;2022-12-16T04:04:50;11.10;43.00
40868;DHT22;26586;50.708;22.412;2022-12-16T04:07:16;11.00;43.10
40868;DHT22;26586;50.708;22.412;2022-12-16T04:09:46;11.10;43.50
40868;DHT22;26586;50.708;22.412;2022-12-16T04:12:13;11.10;43.70
40868;DHT22;26586;50.708;22.412;2022-12-16T04:14:58;11.10;43.60
40868;DHT22;26586;50.708;22.412;2022-12-16T04:17:43;11.00;43.20
40868;DHT22;26586;50.708;22.412;2022-12-16T04:20:32;11.10;43.00
40868;DHT22;26586;50.708;22.412;2022-12-16T04:23:18;11.00;43.80
40868;DHT22;26586;50.708;22.412;2022-12-16T04:26:04;11.00;43.20
40868;DHT22;26586;50.708;22.412;2022-12-16T04:28:30;11.00;43.20
40868;DHT22;26586;50.708;22.412;2022-12-16T04:30:57;11.00;44.10
40868;DHT22;26586;50.708;22.412;2022-12-16T04:33:23;11.00;43.30
40868;DHT22;26586;50.708;22.412;2022-12-16T04:36:08;11.00;43.40
40868;DHT22;26586;50.708;22.412;2022-12-16T04:38:53;11.00;43.10
40868;DHT22;26586;50.708;22.412;2022-12-16T04:41:37;11.00;43.70
40868;DHT22;26586;50.708;22.412;2022-12-16T04:44:22;11.00;43.60
40868;DHT22;26586;50.708;22.412;2022-12-16T04:47:07;11.00;43.50
40868;DHT22;26586;50.708;22.412;2022-12-16T04:49:52;11.00;43.60
40868;DHT22;26586;50.708;22.412;2022-12-16T04:52:36;11.00;43.80
40868;DHT22;26586;50.708;22.412;2022-12-16T04:55:21;11.00;43.90
40868;DHT22;26586;50.708;22.412;2022-12-16T04:58:06;11.00;44.00
40868;DHT22;26586;50.708;22.412;2022-12-16T05:00:51;11.00;44.00
40868;DHT22;26586;50.708;22.412;2022-12-16T05:03:36;11.00;44.10
40868;DHT22;26586;50.708;22.412;2022-12-16T05:06:21;11.00;43.80
40868;DHT22;26586;50.708;22.412;2022-12-16T05:09:06;11.00;44.30
40868;DHT22;26586;50.708;22.412;2022-12-16T05:11:51;11.00;44.20
40868;DHT22;26586;50.708;22.412;2022-12-16T05:14:36;10.90;44.20
40868;DHT22;26586;50.708;22.412;2022-12-16T05:17:20;10.90;44.30
40868;DHT22;26586;50.708;22.412;2022-12-16T05:20:06;11.00;47.00
40868;DHT22;26586;50.708;22.412;2022-12-16T05:22:51;11.00;44.80
40868;DHT22;26586;50.708;22.412;2022-12-16T05:25:38;11.00;45.30
40868;DHT22;26586;50.708;22.412;2022-12-16T05:28:23;11.00;44.60
40868;DHT22;26586;50.708;22.412;2022-12-16T05:31:08;11.00;44.90
40868;DHT22;26586;50.708;22.412;2022-12-16T05:33:52;11.10;44.80
40868;DHT22;26586;50.708;22.412;2022-12-16T05:36:37;11.10;45.30
40868;DHT22;26586;50.708;22.412;2022-12-16T05:39:22;11.10;44.90
40868;DHT22;26586;50.708;22.412;2022-12-16T05:42:07;11.20;45.10
40868;DHT22;26586;50.708;22.412;2022-12-16T05:44:51;11.20;45.40
40868;DHT22;26586;50.708;22.412;2022-12-16T05:47:36;11.30;45.90
40868;DHT22;26586;50.708;22.412;2022-12-16T05:50:21;11.30;45.50
40868;DHT22;26586;50.708;22.412;2022-12-16T05:53:06;11.30;45.70
40868;DHT22;26586;50.708;22.412;2022-12-16T05:55:50;11.40;45.20
40868;DHT22;26586;50.708;22.412;2022-12-16T05:58:35;11.40;45.20
40868;DHT22;26586;50.708;22.412;2022-12-16T06:01:20;11.40;44.80
40868;DHT22;26586;50.708;22.412;2022-12-16T06:04:05;11.40;44.80
40868;DHT22;26586;50.708;22.412;2022-12-16T06:06:50;11.40;45.20
40868;DHT22;26586;50.708;22.412;2022-12-16T06:09:34;11.40;45.40
40868;DHT22;26586;50.708;22.412;2022-12-16T06:12:19;11.40;45.10
40868;DHT22;26586;50.708;22.412;2022-12-16T06:15:04;11.40;45.20
40868;DHT22;26586;50.708;22.412;2022-12-16T06:17:49;11.30;45.40
40868;DHT22;26586;50.708;22.412;2022-12-16T06:20:35;11.40;46.10
40868;DHT22;26586;50.708;22.412;2022-12-16T06:23:20;11.40;45.90
40868;DHT22;26586;50.708;22.412;2022-12-16T06:26:05;11.40;45.40
40868;DHT22;26586;50.708;22.412;2022-12-16T06:28:50;11.40;45.40
40868;DHT22;26586;50.708;22.412;2022-12-16T06:31:35;11.40;45.40
40868;DHT22;26586;50.708;22.412;2022-12-16T06:34:19;11.40;45.50
40868;DHT22;26586;50.708;22.412;2022-12-16T06:37:04;11.50;45.60
40868;DHT22;26586;50.708;22.412;2022-12-16T06:39:49;11.40;45.70
40868;DHT22;26586;50.708;22.412;2022-12-16T06:42:36;11.50;45.80
40868;DHT22;26586;50.708;22.412;2022-12-16T06:45:22;11.50;46.30
40868;DHT22;26586;50.708;22.412;2022-12-16T06:48:06;11.50;46.40
40868;DHT22;26586;50.708;22.412;2022-12-16T06:50:51;11.50;47.50
40868;DHT22;26586;50.708;22.412;2022-12-16T06:53:36;11.60;46.30
40868;DHT22;26586;50.708;22.412;2022-12-16T06:56:20;11.60;46.80
40868;DHT22;26586;50.708;22.412;2022-12-16T06:59:05;11.60;46.60
40868;DHT22;26586;50.708;22.412;2022-12-16T07:01:50;11.70;47.70
40868;DHT22;26586;50.708;22.412;2022-12-16T07:04:36;11.70;46.30
40868;DHT22;26586;50.708;22.412;2022-12-16T07:07:24;11.70;46.10
40868;DHT22;26586;50.708;22.412;2022-12-16T07:10:31;11.70;46.40
40868;DHT22;26586;50.708;22.412;2022-12-16T07:13:16;11.80;46.30
40868;DHT22;26586;50.708;22.412;2022-12-16T07:16:00;11.80;47.50
40868;DHT22;26586;50.708;22.412;2022-12-16T07:18:49;11.80;46.10
40868;DHT22;26586;50.708;22.412;2022-12-16T07:21:34;11.80;46.60
40868;DHT22;26586;50.708;22.412;2022-12-16T07:24:19;11.80;47.00
40868;DHT22;26586;50.708;22.412;2022-12-16T07:27:03;11.90;47.20
40868;DHT22;26586;50.708;22.412;2022-12-16T07:29:48;11.90;46.40
40868;DHT22;26586;50.708;22.412;2022-12-16T07:32:33;11.90;46.50
40868;DHT22;26586;50.708;22.412;2022-12-16T07:35:18;11.90;47.30
40868;DHT22;26586;50.708;22.412;2022-12-16T07:38:02;11.90;46.30
40868;DHT22;26586;50.708;22.412;2022-12-16T07:40:47;12.00;46.40
40868;DHT22;26586;50.708;22.412;2022-12-16T07:43:32;12.00;46.70
40868;DHT22;26586;50.708;22.412;2022-12-16T07:46:16;12.00;46.70
40868;DHT22;26586;50.708;22.412;2022-12-16T07:49:01;12.00;46.60
40868;DHT22;26586;50.708;22.412;2022-12-16T07:51:46;12.00;46.70
40868;DHT22;26586;50.708;22.412;2022-12-16T07:54:30;12.00;46.20
40868;DHT22;26586;50.708;22.412;2022-12-16T07:57:15;12.00;46.30
40868;DHT22;26586;50.708;22.412;2022-12-16T08:00:00;12.00;46.40
40868;DHT22;26586;50.708;22.412;2022-12-16T08:02:46;12.10;46.30
40868;DHT22;26586;50.708;22.412;2022-12-16T08:05:34;12.10;46.70
40868;DHT22;26586;50.708;22.412;2022-12-16T08:08:19;12.10;46.30
40868;DHT22;26586;50.708;22.412;2022-12-16T08:11:04;12.10;46.60
40868;DHT22;26586;50.708;22.412;2022-12-16T08:13:49;12.10;47.10
40868;DHT22;26586;50.708;22.412;2022-12-16T08:16:34;12.10;46.70
40868;DHT22;26586;50.708;22.412;2022-12-16T08:19:18;12.10;47.10
40868;DHT22;26586;50.708;22.412;2022-12-16T08:22:03;12.20;46.90
40868;DHT22;26586;50.708;22.412;2022-12-16T08:24:48;12.20;46.50
40868;DHT22;26586;50.708;22.412;2022-12-16T08:27:33;12.20;46.90
40868;DHT22;26586;50.708;22.412;2022-12-16T08:30:18;12.20;47.50
40868;DHT22;26586;50.708;22.412;2022-12-16T08:33:02;12.30;47.10
40868;DHT22;26586;50.708;22.412;2022-12-16T08:35:47;12.30;46.60
40868;DHT22;26586;50.708;22.412;2022-12-16T08:38:32;12.30;46.60
40868;DHT22;26586;50.708;22.412;2022-12-16T08:41:18;12.30;46.30
40868;DHT22;26586;50.708;22.412;2022-12-16T08:44:02;12.30;46.40
40868;DHT22;26586;50.708;22.412;2022-12-16T08:46:47;12.30;46.10
40868;DHT22;26586;50.708;22.412;2022-12-16T08:49:31;12.30;46.40
40868;DHT22;26586;50.708;22.412;2022-12-16T08:52:16;12.30;46.70
40868;DHT22;26586;50.708;22.412;2022-12-16T08:55:01;12.40;46.50
40868;DHT22;26586;50.708;22.412;2022-12-16T08:57:53;12.40;46.40
40868;DHT22;26586;50.708;22.412;2022-12-16T09:00:37;12.40;47.10
40868;DHT22;26586;50.708;22.412;2022-12-16T09:03:22;12.40;46.70
40868;DHT22;26586;50.708;22.412;2022-12-16T09:06:07;12.40;46.40
40868;DHT22;26586;50.708;22.412;2022-12-16T09:08:52;12.40;46.10
40868;DHT22;26586;50.708;22.412;2022-12-16T09:11:36;12.40;46.30
40868;DHT22;26586;50.708;22.412;2022-12-16T09:14:21;12.40;46.80
40868;DHT22;26586;50.708;22.412;2022-12-16T09:17:06;12.40;46.30
40868;DHT22;26586;50.708;22.412;2022-12-16T09:19:51;12.50;46.50
40868;DHT22;26586;50.708;22.412;2022-12-16T09:22:35;12.40;46.60
40868;DHT22;26586;50.708;22.412;2022-12-16T09:25:20;12.50;46.80
40868;DHT22;26586;50.708;22.412;2022-12-16T09:28:05;12.50;46.70
40868;DHT22;26586;50.708;22.412;2022-12-16T09:30:50;12.60;46.50
40868;DHT22;26586;50.708;22.412;2022-12-16T09:33:34;12.60;46.50
40868;DHT22;26586;50.708;22.412;2022-12-16T09:36:19;12.60;46.20
40868;DHT22;26586;50.708;22.412;2022-12-16T09:39:03;12.60;47.20
40868;DHT22;26586;50.708;22.412;2022-12-16T09:42:34;12.60;47.70
40868;DHT22;26586;50.708;22.412;2022-12-16T09:45:42;12.70;46.80
40868;DHT22;26586;50.708;22.412;2022-12-16T09:51:15;12.80;47.00
40868;DHT22;26586;50.708;22.412;2022-12-16T09:54:01;12.80;46.60
40868;DHT22;26586;50.708;22.412;2022-12-16T09:56:59;12.80;46.50
40868;DHT22;26586;50.708;22.412;2022-12-16T09:59:51;12.80;46.60
40868;DHT22;26586;50.708;22.412;2022-12-16T10:02:38;12.80;46.60
40868;DHT22;26586;50.708;22.412;2022-12-16T10:05:29;12.90;46.30
40868;DHT22;26586;50.708;22.412;2022-12-16T10:11:11;12.90;46.40
40868;DHT22;26586;50.708;22.412;2022-12-16T10:14:06;13.00;46.50
40868;DHT22;26586;50.708;22.412;2022-12-16T10:17:11;13.00;46.40
40868;DHT22;26586;50.708;22.412;2022-12-16T10:23:13;13.00;46.70
40868;DHT22;26586;50.708;22.412;2022-12-16T10:29:18;13.00;46.30
40868;DHT22;26586;50.708;22.412;2022-12-16T10:35:22;13.00;46.10
40868;DHT22;26586;50.708;22.412;2022-12-16T10:38:24;13.00;45.80
40868;DHT22;26586;50.708;22.412;2022-12-16T10:41:14;13.00;46.30
40868;DHT22;26586;50.708;22.412;2022-12-16T10:44:01;13.00;45.90
40868;DHT22;26586;50.708;22.412;2022-12-16T10:46:48;13.00;47.30
40868;DHT22;26586;50.708;22.412;2022-12-16T10:49:50;13.00;46.20
40868;DHT22;26586;50.708;22.412;2022-12-16T10:53:17;13.00;46.30
40868;DHT22;26586;50.708;22.412;2022-12-16T10:59:17;13.10;47.20
40868;DHT22;26586;50.708;22.412;2022-12-16T11:02:19;13.10;46.20
40868;DHT22;26586;50.708;22.412;2022-12-16T11:05:29;13.10;46.80
40868;DHT22;26586;50.708;22.412;2022-12-16T11:08:40;13.10;46.00
40868;DHT22;26586;50.708;22.412;2022-12-16T11:11:27;13.10;46.40
40868;DHT22;26586;50.708;22.412;2022-12-16T11:14:27;13.20;47.40
40868;DHT22;26586;50.708;22.412;2022-12-16T11:17:24;13.20;47.60
40868;DHT22;26586;50.708;22.412;2022-12-16T11:20:13;13.20;47.10
40868;DHT22;26586;50.708;22.412;2022-12-16T11:23:18;13.20;46.80
40868;DHT22;26586;50.708;22.412;2022-12-16T11:26:17;13.30;46.90
40868;DHT22;26586;50.708;22.412;2022-12-16T11:29:10;13.40;49.00
40868;DHT22;26586;50.708;22.412;2022-12-16T11:32:17;13.40;47.50
40868;DHT22;26586;50.708;22.412;2022-12-16T11:35:04;13.40;47.00
40868;DHT22;26586;50.708;22.412;2022-12-16T11:37:51;13.40;49.80
40868;DHT22;26586;50.708;22.412;2022-12-16T11:40:38;13.50;46.80
40868;DHT22;26586;50.708;22.412;2022-12-16T11:43:24;13.50;46.60
40868;DHT22;26586;50.708;22.412;2022-12-16T11:46:17;13.50;46.50
40868;DHT22;26586;50.708;22.412;2022-12-16T11:49:06;13.50;46.00
40868;DHT22;26586;50.708;22.412;2022-12-16T11:52:00;13.50;46.60
40868;DHT22;26586;50.708;22.412;2022-12-16T11:54:56;13.50;47.10
40868;DHT22;26586;50.708;22.412;2022-12-16T11:57:58;13.60;46.90
40868;DHT22;26586;50.708;22.412;2022-12-16T12:00:53;13.60;48.30
40868;DHT22;26586;50.708;22.412;2022-12-16T12:03:48;13.60;47.20
40868;DHT22;26586;50.708;22.412;2022-12-16T12:16:42;13.70;47.10
40868;DHT22;26586;50.708;22.412;2022-12-16T12:19:53;13.70;47.50
40868;DHT22;26586;50.708;22.412;2022-12-16T12:22:40;13.70;46.30
40868;DHT22;26586;50.708;22.412;2022-12-16T12:25:50;13.70;45.80
40868;DHT22;26586;50.708;22.412;2022-12-16T12:35:02;13.70;46.80
40868;DHT22;26586;50.708;22.412;2022-12-16T12:38:14;13.80;46.90
40868;DHT22;26586;50.708;22.412;2022-12-16T12:41:20;13.80;46.20
40868;DHT22;26586;50.708;22.412;2022-12-16T12:44:28;13.80;45.90
40868;DHT22;26586;50.708;22.412;2022-12-16T12:47:19;13.80;45.60
40868;DHT22;26586;50.708;22.412;2022-12-16T12:50:26;13.80;45.40
40868;DHT22;26586;50.708;22.412;2022-12-16T12:53:25;13.80;45.50
40868;DHT22;26586;50.708;22.412;2022-12-16T13:00:00;13.80;52.60
40868;DHT22;26586;50.708;22.412;2022-12-16T13:05:37;14.00;56.80
40868;DHT22;26586;50.708;22.412;2022-12-16T13:08:41;14.00;55.80
40868;DHT22;26586;50.708;22.412;2022-12-16T13:11:26;14.00;47.30
40868;DHT22;26586;50.708;22.412;2022-12-16T13:17:19;14.10;45.80
40868;DHT22;26586;50.708;22.412;2022-12-16T13:23:28;13.90;46.80
40868;DHT22;26586;50.708;22.412;2022-12-16T13:26:15;14.00;46.00
40868;DHT22;26586;50.708;22.412;2022-12-16T13:29:22;14.00;47.50
40868;DHT22;26586;50.708;22.412;2022-12-16T13:35:16;14.00;46.00
40868;DHT22;26586;50.708;22.412;2022-12-16T13:38:01;14.00;46.30
40868;DHT22;26586;50.708;22.412;2022-12-16T13:50:49;14.00;45.60
40868;DHT22;26586;50.708;22.412;2022-12-16T13:53:41;14.00;46.40
40868;DHT22;26586;50.708;22.412;2022-12-16T13:56:36;14.00;45.70
40868;DHT22;26586;50.708;22.412;2022-12-16T13:59:25;14.00;45.70
40868;DHT22;26586;50.708;22.412;2022-12-16T14:02:25;14.00;46.40
40868;DHT22;26586;50.708;22.412;2022-12-16T14:05:18;14.10;46.20
40868;DHT22;26586;50.708;22.412;2022-12-16T14:08:19;14.10;46.20
40868;DHT22;26586;50.708;22.412;2022-12-16T14:11:13;14.10;46.00
40868;DHT22;26586;50.708;22.412;2022-12-16T14:14:15;14.10;45.60
40868;DHT22;26586;50.708;22.412;2022-12-16T14:17:08;14.10;45.20
40868;DHT22;26586;50.708;22.412;2022-12-16T14:25:37;14.10;46.30
40868;DHT22;26586;50.708;22.412;2022-12-16T14:28:29;14.10;45.70
40868;DHT22;26586;50.708;22.412;2022-12-16T14:31:26;14.10;45.60
40868;DHT22;26586;50.708;22.412;2022-12-16T14:34:32;14.10;45.60
40868;DHT22;26586;50.708;22.412;2022-12-16T14:37:19;14.10;46.30
40868;DHT22;26586;50.708;22.412;2022-12-16T14:40:31;14.10;46.20
40868;DHT22;26586;50.708;22.412;2022-12-16T14:43:22;14.10;46.40
40868;DHT22;26586;50.708;22.412;2022-12-16T14:46:37;14.10;47.30
40868;DHT22;26586;50.708;22.412;2022-12-16T14:49:23;14.10;47.50
40868;DHT22;26586;50.708;22.412;2022-12-16T14:52:15;14.10;46.80
40868;DHT22;26586;50.708;22.412;2022-12-16T14:55:26;14.20;46.40
40868;DHT22;26586;50.708;22.412;2022-12-16T14:58:11;14.20;47.50
40868;DHT22;26586;50.708;22.412;2022-12-16T15:03:55;14.20;48.50
40868;DHT22;26586;50.708;22.412;2022-12-16T15:06:42;14.20;47.60
40868;DHT22;26586;50.708;22.412;2022-12-16T15:09:38;14.20;48.60
40868;DHT22;26586;50.708;22.412;2022-12-16T15:12:28;14.20;49.00
40868;DHT22;26586;50.708;22.412;2022-12-16T15:15:45;14.30;49.00
40868;DHT22;26586;50.708;22.412;2022-12-16T15:18:32;14.30;49.50
40868;DHT22;26586;50.708;22.412;2022-12-16T15:21:17;14.30;49.40
40868;DHT22;26586;50.708;22.412;2022-12-16T15:24:16;14.30;49.40
40868;DHT22;26586;50.708;22.412;2022-12-16T15:30:42;14.30;50.30
40868;DHT22;26586;50.708;22.412;2022-12-16T15:33:35;14.40;51.80
40868;DHT22;26586;50.708;22.412;2022-12-16T15:39:19;14.40;49.60
40868;DHT22;26586;50.708;22.412;2022-12-16T15:42:04;14.40;49.60
40868;DHT22;26586;50.708;22.412;2022-12-16T15:44:50;14.40;49.80
40868;DHT22;26586;50.708;22.412;2022-12-16T15:47:37;14.50;50.10
40868;DHT22;26586;50.708;22.412;2022-12-16T15:50:27;14.50;49.80
40868;DHT22;26586;50.708;22.412;2022-12-16T15:53:32;14.50;49.30
40868;DHT22;26586;50.708;22.412;2022-12-16T15:56:23;14.50;49.40
40868;DHT22;26586;50.708;22.412;2022-12-16T15:59:27;14.50;49.90
40868;DHT22;26586;50.708;22.412;2022-12-16T16:04:59;14.60;49.10
40868;DHT22;26586;50.708;22.412;2022-12-16T16:07:44;14.60;49.70
40868;DHT22;26586;50.708;22.412;2022-12-16T16:10:29;14.60;48.40
40868;DHT22;26586;50.708;22.412;2022-12-16T16:13:13;14.60;47.50
40868;DHT22;26586;50.708;22.412;2022-12-16T16:15:58;14.60;46.80
40868;DHT22;26586;50.708;22.412;2022-12-16T16:18:44;14.60;51.10
40868;DHT22;26586;50.708;22.412;2022-12-16T16:21:28;14.60;47.40
40868;DHT22;26586;50.708;22.412;2022-12-16T16:24:14;14.60;47.50
40868;DHT22;26586;50.708;22.412;2022-12-16T16:27:00;14.60;46.10
40868;DHT22;26586;50.708;22.412;2022-12-16T16:29:46;14.50;46.10
40868;DHT22;26586;50.708;22.412;2022-12-16T16:32:33;14.60;45.90
40868;DHT22;26586;50.708;22.412;2022-12-16T16:35:17;14.50;45.50
40868;DHT22;26586;50.708;22.412;2022-12-16T16:38:02;14.60;45.50
40868;DHT22;26586;50.708;22.412;2022-12-16T16:40:47;14.60;45.60
40868;DHT22;26586;50.708;22.412;2022-12-16T16:43:32;14.50;45.30
40868;DHT22;26586;50.708;22.412;2022-12-16T16:46:23;14.50;45.50
40868;DHT22;26586;50.708;22.412;2022-12-16T16:49:15;14.50;45.80
40868;DHT22;26586;50.708;22.412;2022-12-16T16:52:02;14.50;46.00
40868;DHT22;26586;50.708;22.412;2022-12-16T16:54:46;14.50;46.60
40868;DHT22;26586;50.708;22.412;2022-12-16T16:57:33;14.50;46.90
40868;DHT22;26586;50.708;22.412;2022-12-16T17:00:20;14.50;48.00
40868;DHT22;26586;50.708;22.412;2022-12-16T17:03:05;14.50;47.50
40868;DHT22;26586;50.708;22.412;2022-12-16T17:05:50;14.50;48.60
40868;DHT22;26586;50.708;22.412;2022-12-16T17:08:35;14.50;48.80
40868;DHT22;26586;50.708;22.412;2022-12-16T17:11:21;14.60;49.20
40868;DHT22;26586;50.708;22.412;2022-12-16T17:14:11;14.60;47.60
40868;DHT22;26586;50.708;22.412;2022-12-16T17:16:56;14.60;47.00
40868;DHT22;26586;50.708;22.412;2022-12-16T17:19:41;14.60;47.90
40868;DHT22;26586;50.708;22.412;2022-12-16T17:22:25;14.60;46.30
40868;DHT22;26586;50.708;22.412;2022-12-16T17:25:11;14.60;46.90
40868;DHT22;26586;50.708;22.412;2022-12-16T17:27:55;14.60;45.40
40868;DHT22;26586;50.708;22.412;2022-12-16T17:30:40;14.60;45.60
40868;DHT22;26586;50.708;22.412;2022-12-16T17:33:25;14.60;45.50
40868;DHT22;26586;50.708;22.412;2022-12-16T17:36:12;14.60;45.10
40868;DHT22;26586;50.708;22.412;2022-12-16T17:38:57;14.60;46.40
40868;DHT22;26586;50.708;22.412;2022-12-16T17:41:42;14.60;46.00
40868;DHT22;26586;50.708;22.412;2022-12-16T17:44:26;14.60;46.10
40868;DHT22;26586;50.708;22.412;2022-12-16T17:47:12;14.60;45.90
40868;DHT22;26586;50.708;22.412;2022-12-16T17:49:59;14.60;46.30
40868;DHT22;26586;50.708;22.412;2022-12-16T17:52:44;14.60;47.30
40868;DHT22;26586;50.708;22.412;2022-12-16T17:55:28;14.60;47.60
40868;DHT22;26586;50.708;22.412;2022-12-16T17:58:13;14.60;48.10
40868;DHT22;26586;50.708;22.412;2022-12-16T18:01:03;14.60;49.60
40868;DHT22;26586;50.708;22.412;2022-12-16T18:03:48;14.60;48.70
40868;DHT22;26586;50.708;22.412;2022-12-16T18:06:33;14.60;47.70
40868;DHT22;26586;50.708;22.412;2022-12-16T18:09:18;14.70;46.80
40868;DHT22;26586;50.708;22.412;2022-12-16T18:12:08;14.60;47.80
40868;DHT22;26586;50.708;22.412;2022-12-16T18:14:53;14.60;47.00
40868;DHT22;26586;50.708;22.412;2022-12-16T18:17:38;14.70;46.40
40868;DHT22;26586;50.708;22.412;2022-12-16T18:20:23;14.60;45.80
40868;DHT22;26586;50.708;22.412;2022-12-16T18:23:07;14.60;47.60
40868;DHT22;26586;50.708;22.412;2022-12-16T18:26:04;14.60;45.80
40868;DHT22;26586;50.708;22.412;2022-12-16T18:28:49;14.60;48.30
40868;DHT22;26586;50.708;22.412;2022-12-16T18:31:34;14.60;46.50
40868;DHT22;26586;50.708;22.412;2022-12-16T18:34:19;14.60;45.70
40868;DHT22;26586;50.708;22.412;2022-12-16T18:37:04;14.60;45.00
40868;DHT22;26586;50.708;22.412;2022-12-16T18:39:49;14.60;44.50